Vienna, NJ

3:57 AM EDT on August 25, 2016 (GMT -0400)
Snow Dog Lucy's Yard | | Change Station

Elev 988 ft 40.87 °N, 74.84 °W | Updated 4 seconds ago

Clear
Clear
65.1 °F
Feels Like 65.1 °F
N
0.0
Wind Variable Wind from North
Gusts 0.0 mph

Today
High -- | Low -- °F
--% Chance of Precip.
Yesterday
High -- | Low -- °F
Precip. -- in
Pressure 30.12 in
Visibility 5.0 miles
Clouds Clear
Dew Point 65 °F
Humidity 99%
Rainfall 0.00 in
Snow Depth Not available.
6:19 AM 7:42 PM
Waning Gibbous, 48% visible
METAR KSMQ 250753Z AUTO 00000KT 5SM BR CLR 16/14 A3012 RMK AO2 SLP198 T01560144
Pressure 30.12 in
Visibility 5.0 miles
Clouds Clear
Dew Point 65 °F
Humidity 99%
Rainfall 0.00 in
Snow Depth Not available.
6:19 AM 7:42 PM
Waning Gibbous, 48% visible
METAR KSMQ 250753Z AUTO 00000KT 5SM BR CLR 16/14 A3012 RMK AO2 SLP198 T01560144

10-Day Weather Forecast

Almanac

Astronomy

Aug. 25, 2016 Rise Set
Actual Time
Civil Twilight
Nautical Twilight
Astronomical Twilight
Moon
Length of Visible Light
Length of Day
Tomorrow will be .
, % of the Moon is Illuminated

Today's Extremes

State Highs State Lows

Community

WunderPhotos

Upload Photos

1,934,814 photos uploaded!

WunderBlog® & News

Nearby

Air Quality

  Air Quality AQ Index Pollutant
Not available.

Snow Depth

Station Depth Elevation

Earthquake Activity

City Distance Mag. Time & Date
Minimum magnitude displayed is 2.5.

Coastal Water Temperatures

Place Temperature

Stations

Nearby Weather Stations

Station Location Temp. Windchill Dew Point Humidity Wind Precip. Elev Updated Type
                   

Watches & Warnings

There are currently no watches in effect.